Time;durP1;ratioP1;P1;durP2;ratioP2;P2;SDS_P1;SDS_P2;PMS_P1;PMS_P2;Temp;Humidity;BMP_temperature;BMP_pressure;BME280_temperature;BME280_humidity;BME280_pressure;Samples;Min_cycle;Max_cycle;Signal;HPM_P1;HPM_P2
2022/06/02 00:02:39;;;;;;;5.80;3.40;;;;;;;11.95;80.52;100841.94;5000816;28;20049;-56
2022/06/02 00:05:10;;;;;;;3.40;3.10;;;;;;;11.88;80.92;100846.72;5009663;28;20053;-57
2022/06/02 00:08:09;;;;;;;3.33;2.90;;;;;;;11.85;81.39;100847.78;5005533;28;20054;-57
2022/06/02 00:10:54;;;;;;;4.18;3.00;;;;;;;11.84;81.05;100861.03;4993588;28;20053;-55
2022/06/02 00:13:31;;;;;;;6.10;3.20;;;;;;;11.86;81.25;100857.38;5008308;28;20061;-58
2022/06/02 00:16:05;;;;;;;3.72;3.22;;;;;;;11.85;81.51;100865.41;4996059;28;20058;-57
2022/06/02 00:18:42;;;;;;;3.55;2.67;;;;;;;11.83;81.64;100859.34;4992537;28;20092;-53
2022/06/02 00:21:31;;;;;;;4.03;2.85;;;;;;;11.82;81.27;100858.50;5004180;28;20506;-56
2022/06/02 00:24:13;;;;;;;3.30;2.80;;;;;;;11.82;81.47;100863.78;5001297;28;20387;-50
2022/06/02 00:26:56;;;;;;;3.95;2.97;;;;;;;11.82;81.61;100871.69;5006077;28;20050;-52
2022/06/02 00:29:45;;;;;;;3.40;2.92;;;;;;;11.82;81.32;100873.47;4986912;28;20050;-53
2022/06/02 00:32:15;;;;;;;3.65;2.95;;;;;;;11.76;81.42;100879.13;5011667;28;20056;-53
2022/06/02 00:34:47;;;;;;;4.93;3.45;;;;;;;11.74;81.15;100878.34;5005354;28;20061;-54
2022/06/02 00:37:23;;;;;;;3.30;2.80;;;;;;;11.77;80.56;100878.16;5000349;28;20050;-54
2022/06/02 00:39:52;;;;;;;3.90;2.97;;;;;;;11.77;80.32;100884.28;5003898;28;21975;-53
2022/06/02 00:42:34;;;;;;;3.53;2.60;;;;;;;11.73;80.67;100879.28;5005125;28;20046;-56
2022/06/02 00:45:06;;;;;;;2.85;2.40;;;;;;;11.71;79.61;100875.88;5003684;28;20065;-52
2022/06/02 00:47:39;;;;;;;2.95;2.17;;;;;;;11.70;79.03;100876.81;4982587;28;20061;-56
2022/06/02 00:50:12;;;;;;;7.35;2.80;;;;;;;11.62;78.87;100870.25;5006893;28;20069;-56
2022/06/02 00:53:18;;;;;;;4.55;2.63;;;;;;;11.56;79.46;100875.84;5005316;28;20057;-56
2022/06/02 00:59:43;;;;;;;3.17;2.40;;;;;;;11.53;79.85;100886.59;5006767;28;20060;-57
2022/06/02 01:02:11;;;;;;;3.53;2.42;;;;;;;11.51;80.02;100891.09;4994991;28;20080;-54
2022/06/02 01:04:40;;;;;;;2.90;2.13;;;;;;;11.49;80.03;100897.41;5007130;28;20065;-53
2022/06/02 01:07:27;;;;;;;3.50;2.40;;;;;;;11.46;79.99;100901.06;4992716;28;20054;-54
2022/06/02 01:10:00;;;;;;;;;;;;;;;11.40;80.40;100897.00;4991469;28;20580;-53
2022/06/02 01:12:40;;;;;;;3.92;2.92;;;;;;;11.40;80.11;100902.28;5008574;28;19922;-56
2022/06/02 01:15:25;;;;;;;6.03;2.58;;;;;;;11.34;80.34;100899.97;5003340;28;20520;-53
2022/06/02 01:18:21;;;;;;;2.63;2.35;;;;;;;11.28;80.62;100900.34;4995143;28;20064;-53
2022/06/02 01:20:55;;;;;;;2.83;2.47;;;;;;;11.22;81.02;100902.50;5002847;28;20045;-56
2022/06/02 01:23:43;;;;;;;3.38;2.22;;;;;;;11.15;81.32;100897.56;4990220;28;20065;-52
2022/06/02 01:26:38;;;;;;;4.28;2.67;;;;;;;11.11;81.49;100903.09;5002196;28;20068;-53
2022/06/02 01:29:44;;;;;;;3.22;2.10;;;;;;;11.06;81.59;100903.34;4979589;28;20041;-61
2022/06/02 01:32:18;;;;;;;3.47;2.85;;;;;;;10.98;82.61;100907.34;4989781;28;20046;-53
2022/06/02 01:34:54;;;;;;;10.48;2.70;;;;;;;10.94;82.48;100906.66;5009394;28;20060;-55
2022/06/02 01:37:40;;;;;;;3.72;2.10;;;;;;;10.89;82.71;100909.56;5006704;28;20061;-54
2022/06/02 01:40:22;;;;;;;2.75;2.53;;;;;;;10.83;83.51;100916.97;4997226;28;20997;-53
2022/06/02 01:42:59;;;;;;;4.88;3.10;;;;;;;10.81;84.03;100918.84;4989464;28;20192;-54
2022/06/02 01:45:51;;;;;;;4.82;2.80;;;;;;;10.76;84.72;100915.59;4970487;28;20053;-53
2022/06/02 01:48:29;;;;;;;3.28;2.80;;;;;;;10.71;85.42;100918.47;4996146;28;20422;-55
2022/06/02 01:51:06;;;;;;;3.88;2.78;;;;;;;10.66;85.23;100917.88;4991287;28;21348;-52
2022/06/02 01:53:39;;;;;;;3.15;2.75;;;;;;;10.64;85.05;100915.34;4991414;28;20076;-58
2022/06/02 01:56:25;;;;;;;4.93;3.10;;;;;;;10.61;85.75;100919.91;4984711;28;20069;-55
2022/06/02 01:59:16;;;;;;;3.13;2.78;;;;;;;10.57;86.10;100928.91;5001065;28;20116;-54
2022/06/02 02:02:03;;;;;;;3.90;3.25;;;;;;;10.52;87.39;100923.88;4978895;28;20042;-51
2022/06/02 02:04:53;;;;;;;4.60;3.50;;;;;;;10.49;88.00;100931.97;4977845;28;20054;-56
2022/06/02 02:07:54;;;;;;;4.15;3.22;;;;;;;10.45;88.08;100934.84;4995060;28;20050;-51
2022/06/02 02:11:00;;;;;;;3.13;2.83;;;;;;;10.42;88.53;100940.28;4993834;28;20401;-55
2022/06/02 02:13:55;;;;;;;3.25;2.95;;;;;;;10.34;89.62;100940.66;5000040;28;20069;-53
2022/06/02 02:16:47;;;;;;;5.25;3.13;;;;;;;10.30;89.47;100937.34;4989722;28;20050;-52
2022/06/02 02:19:45;;;;;;;6.53;3.50;;;;;;;10.25;90.78;100941.16;4999517;28;20070;-52
2022/06/02 02:22:34;;;;;;;4.70;3.28;;;;;;;10.25;90.09;100949.03;4992413;28;20069;-55
2022/06/02 02:25:01;;;;;;;4.40;3.25;;;;;;;10.22;91.00;100951.78;4990088;28;20236;-55
2022/06/02 02:28:02;;;;;;;4.05;3.33;;;;;;;10.19;91.05;100951.97;4992324;28;20531;-57
2022/06/02 02:30:41;;;;;;;4.07;2.95;;;;;;;10.16;90.89;100955.59;5009120;28;20089;-57
2022/06/02 02:33:24;;;;;;;5.05;3.40;;;;;;;10.14;90.90;100954.84;5015496;28;20053;-53
2022/06/02 02:36:08;;;;;;;5.95;3.22;;;;;;;10.10;91.58;100962.03;4958452;28;20490;-54
2022/06/02 02:39:17;;;;;;;5.43;2.80;;;;;;;10.09;91.82;100957.72;4992127;28;20074;-58
2022/06/02 02:41:59;;;;;;;5.22;3.72;;;;;;;10.07;91.27;100962.19;4996334;28;20045;-52
2022/06/02 02:45:04;;;;;;;3.65;3.25;;;;;;;10.07;91.53;100961.34;5003681;28;20434;-58
2022/06/02 02:47:38;;;;;;;3.88;3.28;;;;;;;10.06;91.33;100960.50;4946598;28;20487;-55
2022/06/02 02:50:20;;;;;;;5.20;3.77;;;;;;;10.03;91.93;100962.44;4978021;28;20569;-49
2022/06/02 02:52:52;;;;;;;4.45;2.95;;;;;;;9.99;91.85;100964.34;4966957;28;20469;-56
2022/06/02 02:55:41;;;;;;;3.50;2.72;;;;;;;10.00;92.09;100965.22;4989223;28;20065;-56
2022/06/02 02:58:24;;;;;;;4.65;3.28;;;;;;;9.96;92.23;100964.53;4987449;28;20073;-53
2022/06/02 03:01:03;;;;;;;4.68;3.63;;;;;;;9.95;92.25;100960.22;4992654;28;20080;-54
2022/06/02 03:03:37;;;;;;;7.32;3.95;;;;;;;9.92;92.22;100965.63;4993346;28;20050;-59
2022/06/02 03:06:27;;;;;;;7.18;3.55;;;;;;;9.93;92.46;100963.84;4988403;28;20054;-57
2022/06/02 03:09:42;;;;;;;4.32;3.53;;;;;;;9.89;92.50;100968.38;4970226;28;20068;-53
2022/06/02 03:12:25;;;;;;;5.57;3.10;;;;;;;9.89;92.39;100966.59;4950413;28;20068;-58
2022/06/02 03:15:22;;;;;;;3.20;2.90;;;;;;;9.89;92.54;100976.28;4981102;28;20058;-57
2022/06/02 03:18:02;;;;;;;3.83;2.90;;;;;;;9.88;93.05;100977.22;4973943;28;20053;-53
2022/06/02 03:20:38;;;;;;;4.28;3.25;;;;;;;9.85;92.81;100980.84;4997461;28;20054;-59
2022/06/02 03:23:33;;;;;;;3.90;3.30;;;;;;;9.84;93.66;100988.81;4972180;28;20053;-53
2022/06/02 03:26:06;;;;;;;3.70;2.53;;;;;;;9.85;92.84;100991.34;4993241;28;20054;-51
2022/06/02 03:28:58;;;;;;;3.42;3.13;;;;;;;9.84;93.03;100994.91;5011629;22;20089;-55
2022/06/02 03:31:37;;;;;;;3.30;3.00;;;;;;;9.86;92.91;101000.97;5001583;28;20057;-53
2022/06/02 03:34:24;;;;;;;3.55;3.22;;;;;;;9.89;93.53;101005.22;5022963;28;20064;-51
2022/06/02 03:37:03;;;;;;;3.10;2.80;;;;;;;9.92;93.61;101009.47;5021223;28;20053;-52
2022/06/02 03:39:50;;;;;;;4.47;2.85;;;;;;;9.93;93.38;101009.38;5020532;28;20066;-53
2022/06/02 03:42:35;;;;;;;5.47;3.03;;;;;;;9.96;92.97;101017.13;5003711;28;20071;-52
2022/06/02 03:45:28;;;;;;;5.50;3.20;;;;;;;10.02;92.79;101019.44;5002687;28;20517;-53
2022/06/02 03:48:12;;;;;;;4.22;3.83;;;;;;;9.97;93.97;101018.81;5005916;28;20068;-55
2022/06/02 03:50:57;;;;;;;4.72;4.15;;;;;;;9.94;94.17;101011.09;5010737;28;20061;-53
2022/06/02 03:53:37;;;;;;;5.72;3.58;;;;;;;10.04;94.04;101014.97;5010700;28;20057;-52
2022/06/02 03:56:30;;;;;;;5.88;4.15;;;;;;;10.08;94.20;101027.00;5016757;28;20053;-53
2022/06/02 03:58:59;;;;;;;4.75;3.83;;;;;;;10.17;93.79;101036.22;5004971;28;20064;-52
2022/06/02 04:01:29;;;;;;;5.82;4.55;;;;;;;10.22;93.60;101030.72;5019258;28;20045;-55
2022/06/02 04:04:28;;;;;;;5.18;4.55;;;;;;;10.22;93.65;101039.50;5019548;28;20061;-54
2022/06/02 04:07:29;;;;;;;4.10;3.63;;;;;;;10.30;93.67;101042.59;5024539;28;20064;-56
2022/06/02 04:10:06;;;;;;;4.93;4.20;;;;;;;10.27;93.00;101040.16;5023321;28;20046;-54
2022/06/02 04:16:20;;;;;;;4.65;3.67;;;;;;;10.42;92.60;101041.13;5016892;28;20046;-53
2022/06/02 04:22:40;;;;;;;5.22;3.80;;;;;;;10.49;91.52;101057.44;5017807;28;20528;-52
2022/06/02 04:25:18;;;;;;;6.93;3.55;;;;;;;10.57;91.58;101058.75;5010585;28;20535;-54
2022/06/02 04:27:57;;;;;;;5.55;3.30;;;;;;;10.60;90.83;101058.59;5005741;28;20057;-56
2022/06/02 04:30:40;;;;;;;4.47;4.07;;;;;;;10.61;90.78;101055.03;5011136;28;20057;-50
2022/06/02 04:33:34;;;;;;;7.55;3.88;;;;;;;10.70;91.20;101060.75;5006650;28;20045;-50
2022/06/02 04:36:14;;;;;;;5.03;3.53;;;;;;;10.73;90.34;101066.72;5014513;28;20072;-57
2022/06/02 04:39:12;;;;;;;3.85;3.35;;;;;;;10.85;90.59;101059.94;5022825;28;20188;-56
2022/06/02 04:41:56;;;;;;;6.78;4.38;;;;;;;10.95;90.03;101065.59;5024112;28;20050;-49
2022/06/02 04:44:41;;;;;;;4.80;3.78;;;;;;;10.96;89.57;101068.13;5023294;28;20065;-52
2022/06/02 04:47:32;;;;;;;6.43;4.75;;;;;;;10.87;89.59;101068.63;5016314;28;20049;-52
2022/06/02 04:50:08;;;;;;;5.68;4.13;;;;;;;10.89;89.63;101078.13;5017759;28;20061;-53
2022/06/02 04:52:49;;;;;;;5.47;4.78;;;;;;;10.98;89.26;101079.41;5020345;28;20474;-50
2022/06/02 04:55:22;;;;;;;5.97;4.32;;;;;;;11.08;89.50;101077.16;5019731;28;20069;-52
2022/06/02 04:57:56;;;;;;;6.30;5.10;;;;;;;11.13;88.94;101073.34;5024085;28;20061;-55
2022/06/02 05:00:39;;;;;;;10.77;5.07;;;;;;;11.12;88.52;101076.03;5020563;28;20056;-53
2022/06/02 05:03:20;;;;;;;7.22;5.40;;;;;;;11.12;89.05;101069.03;5026227;28;20052;-52
2022/06/02 05:05:57;;;;;;;6.57;5.82;;;;;;;11.25;88.51;101089.41;5021665;28;20418;-54
2022/06/02 05:08:54;;;;;;;7.40;5.68;;;;;;;11.31;88.45;101082.03;5019141;28;20072;-51
2022/06/02 05:11:43;;;;;;;6.05;4.80;;;;;;;11.29;88.08;101085.69;5021364;28;20075;-52
2022/06/02 05:14:33;;;;;;;7.35;5.80;;;;;;;11.22;88.07;101089.59;5020612;28;20060;-54
2022/06/02 05:17:36;;;;;;;7.25;5.75;;;;;;;11.23;88.38;101089.50;5018952;28;20088;-54
2022/06/02 05:20:32;;;;;;;8.27;5.20;;;;;;;11.28;88.10;101095.38;5023647;28;20545;-53
2022/06/02 05:23:30;;;;;;;6.75;6.13;;;;;;;11.26;88.37;101092.00;5020147;28;20517;-51
2022/06/02 05:26:22;;;;;;;7.35;5.43;;;;;;;11.27;88.47;101104.22;5015894;28;20290;-53
2022/06/02 05:29:11;;;;;;;8.45;5.63;;;;;;;11.41;87.86;101103.47;5023606;28;20050;-52
2022/06/02 05:32:00;;;;;;;11.23;5.70;;;;;;;11.53;87.55;101110.72;5032696;28;20076;-52
2022/06/02 05:34:51;;;;;;;8.65;6.53;;;;;;;11.66;87.30;101122.28;5016576;28;20037;-53
2022/06/02 05:37:29;;;;;;;9.07;5.57;;;;;;;11.70;86.87;101119.47;5037938;28;20053;-55
2022/06/02 05:40:02;;;;;;;6.90;5.68;;;;;;;11.75;86.77;101120.06;5024140;28;20088;-54
2022/06/02 05:42:44;;;;;;;9.98;6.40;;;;;;;11.84;86.26;101124.84;5022568;28;20049;-54
2022/06/02 05:45:18;;;;;;;7.00;5.90;;;;;;;11.97;86.52;101123.22;5016573;28;20064;-54
2022/06/02 05:48:03;;;;;;;7.97;6.13;;;;;;;11.88;85.71;101127.22;5026923;28;20529;-54
2022/06/02 05:50:42;;;;;;;9.50;5.78;;;;;;;11.88;86.15;101126.38;5025264;28;20497;-52
2022/06/02 05:53:37;;;;;;;7.30;5.60;;;;;;;11.91;85.67;101132.34;5017532;28;20058;-56
2022/06/02 05:56:26;;;;;;;8.55;6.47;;;;;;;12.03;85.39;101135.22;5024431;28;20092;-55
2022/06/02 05:59:12;;;;;;;8.40;6.32;;;;;;;12.05;84.76;101135.97;5027880;28;20132;-50
2022/06/02 06:02:08;;;;;;;9.63;6.93;;;;;;;12.12;84.68;101147.91;5025465;28;20076;-54
2022/06/02 06:04:40;;;;;;;;;;;;;;;12.21;84.28;101143.88;5023279;28;20056;-54
2022/06/02 06:07:44;;;;;;;7.72;6.07;;;;;;;12.19;84.16;101148.38;5026378;28;20435;-57
2022/06/02 06:10:36;;;;;;;7.60;6.13;;;;;;;12.15;84.26;101152.97;5006136;28;20107;-53
2022/06/02 06:13:17;;;;;;;9.85;6.40;;;;;;;12.23;84.66;101153.41;5027877;28;20188;-53
2022/06/02 06:15:58;;;;;;;11.55;6.55;;;;;;;12.11;85.04;101154.97;5038531;28;20119;-53
2022/06/02 06:18:48;;;;;;;9.20;6.70;;;;;;;12.22;84.67;101156.16;5027684;28;20061;-56
2022/06/02 06:21:33;;;;;;;8.60;7.38;;;;;;;12.35;84.39;101158.00;5019935;28;20079;-54
2022/06/02 06:24:32;;;;;;;7.30;6.60;;;;;;;12.53;83.29;101156.06;5026665;28;20129;-54
2022/06/02 06:27:10;;;;;;;8.80;7.10;;;;;;;12.52;83.16;101162.31;5021549;28;20125;-55
2022/06/02 06:29:54;;;;;;;11.45;7.55;;;;;;;12.58;82.69;101163.72;5028222;28;20053;-52
2022/06/02 06:32:30;;;;;;;7.90;6.63;;;;;;;12.62;82.48;101163.44;5025551;28;20602;-52
2022/06/02 06:35:23;;;;;;;;;;;;;;;12.66;82.09;101172.91;5028553;28;20064;-56
2022/06/02 06:37:53;;;;;;;11.05;8.18;;;;;;;12.67;81.96;101171.09;5027970;28;19939;-53
2022/06/02 06:40:35;;;;;;;9.63;7.75;;;;;;;12.70;81.73;101175.34;5028153;28;20049;-54
2022/06/02 06:43:21;;;;;;;9.77;7.80;;;;;;;12.69;81.89;101185.06;5028443;28;20061;-54
2022/06/02 06:46:07;;;;;;;8.57;7.75;;;;;;;12.84;80.97;101180.69;5022749;28;20072;-56
2022/06/02 06:48:52;;;;;;;8.90;7.28;;;;;;;12.96;80.68;101190.50;5027331;28;20072;-55
2022/06/02 06:52:02;;;;;;;13.35;7.93;;;;;;;13.04;79.84;101184.75;5020678;28;20050;-57
2022/06/02 06:54:44;;;;;;;11.65;7.72;;;;;;;13.22;79.64;101188.09;5025792;28;20053;-51
2022/06/02 06:57:18;;;;;;;9.82;7.40;;;;;;;13.11;79.39;101186.94;5022993;28;20065;-52
2022/06/02 06:59:48;;;;;;;11.00;7.60;;;;;;;13.25;80.16;101196.72;5020421;28;20479;-52
2022/06/02 07:02:56;;;;;;;11.32;8.40;;;;;;;13.42;78.17;101200.97;5021213;28;20037;-53
2022/06/02 07:05:35;;;;;;;10.43;7.50;;;;;;;13.39;78.16;101199.38;5018832;28;20049;-56
2022/06/02 07:08:26;;;;;;;15.05;8.13;;;;;;;13.54;76.38;101205.50;5022728;28;20061;-50
2022/06/02 07:10:58;;;;;;;14.57;7.90;;;;;;;13.29;76.87;101202.69;5014654;28;20225;-51
2022/06/02 07:13:30;;;;;;;10.88;8.15;;;;;;;13.35;76.13;101205.78;5011375;28;20050;-55
2022/06/02 07:16:12;;;;;;;7.90;7.10;;;;;;;13.50;76.06;101205.78;5018737;28;20061;-54
2022/06/02 07:19:03;;;;;;;11.05;7.38;;;;;;;13.59;75.36;101208.69;5018672;28;20421;-51
2022/06/02 07:21:40;;;;;;;12.75;7.65;;;;;;;13.82;74.04;101209.06;5021092;28;20049;-52
2022/06/02 07:24:25;;;;;;;8.30;7.10;;;;;;;14.08;73.16;101210.88;5019540;28;20052;-53
2022/06/02 07:27:05;;;;;;;12.40;7.88;;;;;;;14.04;72.94;101209.38;5013460;28;20065;-52
2022/06/02 07:29:47;;;;;;;15.18;7.53;;;;;;;14.28;72.84;101201.69;5016193;28;20080;-54
2022/06/02 07:32:30;;;;;;;8.32;7.00;;;;;;;14.19;72.59;101207.56;5027189;28;20063;-53
2022/06/02 07:35:22;;;;;;;16.63;7.22;;;;;;;14.28;72.54;101200.84;5021983;28;20045;-54
2022/06/02 07:37:54;;;;;;;10.23;6.90;;;;;;;14.59;71.43;101207.63;5021358;28;20053;-55
2022/06/02 07:40:29;;;;;;;12.27;6.55;;;;;;;14.76;70.41;101211.78;5010799;28;20050;-56
2022/06/02 07:43:25;;;;;;;10.02;7.15;;;;;;;14.80;69.31;101219.44;5029961;28;20060;-56
2022/06/02 07:46:35;;;;;;;8.00;5.82;;;;;;;14.91;67.79;101205.47;5019182;28;20069;-56
2022/06/02 07:49:24;;;;;;;13.00;5.28;;;;;;;15.06;67.13;101219.50;5019060;28;20052;-53
2022/06/02 07:52:05;;;;;;;5.47;4.95;;;;;;;14.80;67.48;101223.91;5022713;28;20060;-54
2022/06/02 07:54:49;;;;;;;9.77;4.80;;;;;;;14.74;68.12;101226.97;5018178;28;20049;-54
2022/06/02 07:57:35;;;;;;;9.73;4.68;;;;;;;14.68;68.04;101237.03;5014121;28;20068;-52
2022/06/02 08:00:13;;;;;;;8.00;5.53;;;;;;;14.71;67.82;101229.81;5023999;28;20072;-55
2022/06/02 08:03:00;;;;;;;7.28;4.28;;;;;;;14.89;67.49;101241.84;5026172;28;20636;-53
2022/06/02 08:05:41;;;;;;;7.45;4.68;;;;;;;14.95;66.66;101241.44;5019414;28;20049;-52
2022/06/02 08:08:21;;;;;;;5.95;3.55;;;;;;;14.88;66.70;101254.25;5026366;28;20049;-56
2022/06/02 08:11:29;;;;;;;10.43;3.53;;;;;;;14.85;64.83;101242.97;5020877;28;20041;-54
2022/06/02 08:14:07;;;;;;;4.95;3.45;;;;;;;15.07;64.29;101243.25;5018486;28;20050;-52
2022/06/02 08:16:55;;;;;;;4.03;3.22;;;;;;;15.20;62.47;101254.72;5023119;28;20705;-55
2022/06/02 08:19:40;;;;;;;5.13;2.80;;;;;;;15.43;62.58;101249.63;5025185;28;20052;-57
2022/06/02 08:22:11;;;;;;;6.78;2.88;;;;;;;15.57;60.31;101254.81;5018781;28;20057;-52
2022/06/02 08:24:57;;;;;;;4.45;3.05;;;;;;;15.87;59.92;101257.16;5025042;28;20050;-53
2022/06/02 08:27:42;;;;;;;3.58;2.50;;;;;;;16.02;58.65;101254.38;5021321;28;20510;-56
2022/06/02 08:30:12;;;;;;;3.10;2.75;;;;;;;16.12;58.78;101250.06;5023249;28;20060;-56
2022/06/02 08:32:44;;;;;;;8.07;2.90;;;;;;;15.81;58.15;101259.41;5023844;28;20053;-54
2022/06/02 08:35:28;;;;;;;10.45;2.38;;;;;;;15.72;57.64;101257.41;5016346;28;20501;-53
2022/06/02 08:38:29;;;;;;;3.67;2.38;;;;;;;16.17;56.92;101266.56;5035955;28;20471;-56
2022/06/02 08:41:33;;;;;;;5.82;2.10;;;;;;;16.27;56.39;101272.06;5023159;28;20749;-56
2022/06/02 08:44:32;;;;;;;3.80;2.20;;;;;;;15.95;56.31;101275.22;5023595;28;20050;-55
2022/06/02 08:47:11;;;;;;;3.50;2.30;;;;;;;15.78;56.30;101272.91;5037548;28;20611;-54
2022/06/02 08:49:56;;;;;;;2.50;2.10;;;;;;;15.69;56.19;101271.72;5021376;28;20064;-56
2022/06/02 08:52:38;;;;;;;5.72;2.40;;;;;;;15.67;55.55;101277.16;5029533;28;20061;-57
2022/06/02 08:55:49;;;;;;;5.70;1.90;;;;;;;15.81;54.47;101276.19;5030776;28;20061;-57
2022/06/02 08:58:59;;;;;;;3.58;2.17;;;;;;;15.90;53.78;101278.19;5019024;28;20479;-51
2022/06/02 09:01:42;;;;;;;3.38;2.00;;;;;;;15.92;53.80;101292.19;5019367;28;20056;-56
2022/06/02 09:04:49;;;;;;;8.68;2.30;;;;;;;15.99;53.75;101276.69;5016011;28;20049;-53
2022/06/02 09:07:41;;;;;;;4.05;1.88;;;;;;;16.36;53.53;101274.88;5022131;28;20049;-52
2022/06/02 09:10:21;;;;;;;;;;;;;;;16.53;53.10;101283.44;5025555;28;20136;-56
2022/06/02 09:13:02;;;;;;;3.35;2.00;;;;;;;16.63;52.42;101282.63;5020053;28;19929;-53
2022/06/02 09:15:49;;;;;;;2.92;1.85;;;;;;;16.61;51.64;101279.22;5023240;28;20061;-51
2022/06/02 09:18:37;;;;;;;2.80;1.88;;;;;;;16.66;50.99;101282.44;5026647;28;20609;-55
2022/06/02 09:22:06;;;;;;;6.75;2.30;;;;;;;16.63;50.09;101281.78;5025177;28;20463;-53
2022/06/02 09:24:43;;;;;;;5.13;1.85;;;;;;;16.23;49.40;101282.03;5024986;28;20045;-54
2022/06/02 09:27:47;;;;;;;3.65;1.48;;;;;;;16.36;50.38;101282.00;5025503;28;21174;-55
2022/06/02 09:30:23;;;;;;;7.03;1.85;;;;;;;16.65;49.18;101280.69;5023781;28;20049;-54
2022/06/02 09:33:33;;;;;;;4.57;1.70;;;;;;;16.60;49.51;101285.50;5027357;28;20065;-54
2022/06/02 09:35:59;;;;;;;3.97;1.65;;;;;;;17.12;48.75;101288.78;5023768;28;20053;-54
2022/06/02 09:38:39;;;;;;;3.22;1.55;;;;;;;17.26;47.68;101288.59;5026846;28;20062;-55
2022/06/02 09:41:11;;;;;;;7.18;1.80;;;;;;;16.67;49.16;101301.88;5026917;28;20050;-56
2022/06/02 09:44:04;;;;;;;5.35;1.63;;;;;;;16.16;49.60;101294.91;5027225;28;20053;-52
2022/06/02 09:47:08;;;;;;;5.35;1.73;;;;;;;16.35;49.69;101288.28;5023453;28;20077;-54
2022/06/02 09:49:55;;;;;;;4.70;1.52;;;;;;;16.62;50.30;101283.59;5025824;28;20061;-53
2022/06/02 09:52:34;;;;;;;2.95;1.55;;;;;;;17.07;48.94;101307.78;5022358;28;20544;-52
2022/06/02 09:55:14;;;;;;;7.18;1.50;;;;;;;16.80;46.35;101305.34;5027159;28;20060;-53
2022/06/02 09:58:02;;;;;;;2.53;1.10;;;;;;;16.88;45.93;101307.44;5021470;28;20444;-52
2022/06/02 10:00:40;;;;;;;4.97;1.40;;;;;;;16.87;45.62;101290.63;5018227;28;20057;-53
2022/06/02 10:03:38;;;;;;;2.20;1.02;;;;;;;17.09;46.09;101295.19;5027970;28;20048;-53
2022/06/02 10:06:08;;;;;;;2.15;1.48;;;;;;;16.99;45.73;101301.31;5025000;28;20525;-53
2022/06/02 10:08:53;;;;;;;5.82;1.60;;;;;;;16.86;46.77;101291.59;5028201;28;20098;-54
2022/06/02 10:11:32;;;;;;;2.88;1.33;;;;;;;17.43;46.29;101289.97;5023468;28;20417;-55
2022/06/02 10:14:10;;;;;;;2.55;1.20;;;;;;;18.06;45.07;101291.22;5018388;28;20049;-53
2022/06/02 10:17:15;;;;;;;3.08;1.20;;;;;;;18.32;44.68;101297.09;5020794;28;20530;-54
2022/06/02 10:20:09;;;;;;;3.95;1.15;;;;;;;17.72;44.70;101301.84;5021550;28;20068;-54
2022/06/02 10:22:58;;;;;;;7.13;1.45;;;;;;;17.65;45.14;101305.09;5023409;28;20053;-55
2022/06/02 10:25:52;;;;;;;3.17;1.20;;;;;;;17.39;43.99;101305.31;5021812;28;20045;-51
2022/06/02 10:28:51;;;;;;;1.65;1.13;;;;;;;17.40;43.48;101308.81;5025968;28;20148;-53
2022/06/02 10:31:52;;;;;;;2.40;1.02;;;;;;;17.57;43.33;101297.72;5026955;28;20053;-53
2022/06/02 10:34:33;;;;;;;3.63;1.10;;;;;;;17.91;43.30;101287.94;5027316;28;20094;-55
2022/06/02 10:37:03;;;;;;;4.35;1.55;;;;;;;17.97;43.76;101307.94;5020545;28;20077;-49
2022/06/02 10:39:39;;;;;;;2.78;1.27;;;;;;;17.83;45.11;101308.16;5021074;28;20068;-52
2022/06/02 10:42:24;;;;;;;3.58;1.17;;;;;;;17.94;45.09;101318.84;5022055;28;20494;-53
2022/06/02 10:45:00;;;;;;;3.97;1.58;;;;;;;18.14;43.92;101309.25;5013705;28;20069;-55
2022/06/02 10:48:05;;;;;;;4.72;1.48;;;;;;;18.31;43.63;101305.25;5022424;28;20048;-52
2022/06/02 10:51:07;;;;;;;4.00;1.27;;;;;;;18.32;43.21;101307.78;5022768;28;20057;-54
2022/06/02 10:53:55;;;;;;;4.85;1.55;;;;;;;18.39;42.49;101313.47;5026461;28;20053;-53
2022/06/02 10:56:51;;;;;;;3.08;1.35;;;;;;;18.05;42.61;101323.31;5024754;28;20048;-52
2022/06/02 10:59:44;;;;;;;5.30;1.08;;;;;;;18.01;42.56;101319.19;5021492;28;20049;-53
2022/06/02 11:02:47;;;;;;;1.65;1.15;;;;;;;18.55;42.77;101321.06;5021270;28;20060;-55
2022/06/02 11:05:39;;;;;;;4.32;1.52;;;;;;;19.05;42.11;101316.94;5038730;28;20053;-53
2022/06/02 11:09:10;;;;;;;1.65;0.98;;;;;;;18.91;40.80;101315.41;5024248;28;20076;-55
2022/06/02 11:12:03;;;;;;;4.03;1.70;;;;;;;19.04;41.23;101320.56;5023069;28;20121;-54
2022/06/02 11:14:52;;;;;;;1.95;1.33;;;;;;;18.89;41.19;101321.84;5018777;28;20618;-54
2022/06/02 11:17:52;;;;;;;5.10;1.95;;;;;;;18.84;42.16;101324.06;5021811;28;20497;-51
2022/06/02 11:20:28;;;;;;;2.55;1.10;;;;;;;18.89;41.85;101321.84;5018751;28;20053;-52
2022/06/02 11:23:09;;;;;;;4.55;1.48;;;;;;;18.74;41.99;101329.31;5024548;28;20046;-53
2022/06/02 11:26:23;;;;;;;1.98;0.98;;;;;;;18.71;40.86;101324.22;5018408;28;20049;-54
2022/06/02 11:29:27;;;;;;;5.15;1.20;;;;;;;18.44;41.33;101325.44;5017848;28;20482;-50
2022/06/02 11:32:11;;;;;;;5.88;1.42;;;;;;;18.54;41.66;101319.38;5020402;28;20609;-54
2022/06/02 11:35:13;;;;;;;13.38;1.80;;;;;;;18.75;41.27;101319.47;5034400;28;20049;-55
2022/06/02 11:38:07;;;;;;;2.42;0.98;;;;;;;19.11;41.01;101323.56;5022027;28;20068;-55
2022/06/02 11:41:07;;;;;;;3.50;1.40;;;;;;;19.09;40.32;101315.72;5019682;28;20062;-52
2022/06/02 11:43:53;;;;;;;2.78;1.33;;;;;;;19.28;39.97;101320.34;5022482;28;20059;-52
2022/06/02 11:46:55;;;;;;;6.28;1.50;;;;;;;18.81;40.30;101317.13;5016651;28;20041;-51
2022/06/02 11:49:48;;;;;;;3.13;1.17;;;;;;;18.72;40.20;101326.75;5017087;28;20207;-51
2022/06/02 11:52:43;;;;;;;2.33;1.10;;;;;;;18.44;40.37;101328.13;5040137;28;20551;-54
2022/06/02 11:55:27;;;;;;;2.20;0.90;;;;;;;18.38;40.35;101317.13;5022229;28;20050;-53
2022/06/02 11:58:18;;;;;;;4.40;1.30;;;;;;;18.29;40.51;101328.53;5024101;28;20057;-52
2022/06/02 12:00:57;;;;;;;1.85;1.00;;;;;;;18.59;39.26;101317.16;5022392;28;20300;-54
2022/06/02 12:03:48;;;;;;;2.25;0.90;;;;;;;18.60;39.65;101317.06;5022576;28;20041;-56
2022/06/02 12:06:42;;;;;;;3.22;1.00;;;;;;;18.86;38.86;101332.75;5020970;28;20064;-55
2022/06/02 12:09:40;;;;;;;4.38;0.90;;;;;;;19.09;38.70;101306.81;5017955;28;20155;-56
2022/06/02 12:12:53;;;;;;;1.95;0.80;;;;;;;19.33;36.29;101306.59;5033891;28;20125;-53
2022/06/02 12:16:05;;;;;;;2.20;1.10;;;;;;;19.53;36.43;101324.41;5018357;28;20526;-55
2022/06/02 12:19:03;;;;;;;3.53;0.80;;;;;;;20.04;35.44;101314.72;5026533;28;20581;-55
2022/06/02 12:21:52;;;;;;;3.08;0.70;;;;;;;20.29;35.12;101316.06;5019108;28;20049;-55
2022/06/02 12:24:44;;;;;;;1.67;0.68;;;;;;;20.83;33.76;101306.75;5025111;28;20482;-52
2022/06/02 12:27:37;;;;;;;3.50;0.90;;;;;;;20.89;33.90;101328.47;5024426;28;20045;-56
2022/06/02 12:30:42;;;;;;;7.00;1.05;;;;;;;20.53;34.10;101327.28;5018258;28;20053;-53
2022/06/02 12:33:19;;;;;;;5.50;0.88;;;;;;;20.05;35.58;101316.44;5015821;28;20056;-55
2022/06/02 12:35:56;;;;;;;3.33;0.90;;;;;;;19.64;35.22;101320.88;5022022;28;20049;-53
2022/06/02 12:38:32;;;;;;;3.28;0.75;;;;;;;19.98;36.15;101326.78;5020790;28;20064;-50
2022/06/02 12:41:14;;;;;;;4.22;1.15;;;;;;;20.49;35.06;101323.22;5017958;28;20053;-55
2022/06/02 12:43:54;;;;;;;3.58;1.52;;;;;;;20.96;34.47;101316.19;5023720;28;20053;-55
2022/06/02 12:46:43;;;;;;;3.30;0.60;;;;;;;21.35;34.60;101318.88;5014525;28;20050;-55
2022/06/02 12:49:33;;;;;;;2.33;1.00;;;;;;;20.87;33.20;101332.25;5011174;28;20080;-52
2022/06/02 12:52:06;;;;;;;1.92;0.95;;;;;;;20.24;33.29;101336.03;5018932;28;20596;-54
2022/06/02 12:55:14;;;;;;;1.63;0.80;;;;;;;20.28;34.20;101314.38;5022406;28;20061;-54
2022/06/02 12:58:21;;;;;;;4.47;0.85;;;;;;;20.94;33.51;101323.53;5034631;28;20058;-54
2022/06/02 13:01:27;;;;;;;3.15;1.02;;;;;;;20.82;33.08;101324.66;5040143;28;20058;-55
2022/06/02 13:04:34;;;;;;;3.67;1.00;;;;;;;21.42;32.81;101327.19;5016167;28;20053;-55
2022/06/02 13:07:39;;;;;;;3.72;0.60;;;;;;;21.57;31.50;101332.94;5018995;28;20611;-54
2022/06/02 13:10:37;;;;;;;3.20;1.38;;;;;;;21.70;31.61;101323.63;5021157;28;20053;-53